Kezdőlap
METAR-TAF:

METAR-TAF

Repülőterek :

Belgrád, Szerbia

földrajzi szélesség: 44-49N, földrajzi hosszúság: 020-17E, magasság: 96 m

Jelenlegi meteorológiai megfigyelések

A jelentés 19 perccel ezelõtt készült, 04:00 UTC
Szélcsend
Hőmérséklet 16°C
Páratartalom 59%
Légköri nyomás 1020 hPa
Látótávolság 10 km, vagy több
felhőtlen 1500 m magasságban, és nincs gomolyfelhõ

METAR: LYBE 200400Z 00000KT CAVOK 16/08 Q1020 NOSIG

Idő: 06:19 (04:19 UTC)

Előrejelzés

A jelentés 5 órával és 19 perccel ezelõtt készült, 23:00 UTC
Az előrejelzés 20-én 00 óra UTC és 20-én 24 óra UTC között érvényes
Délkeleti szél 8 kt
Látótávolság 10 km, vagy több
felhőtlen 1500 m magasságban, és nincs gomolyfelhõ

TAF: LYBE 192300Z 2000/2024 14008KT CAVOK TX29/2013Z TN15/2004Z

Meteorológiai megfigyelések és előrejelzések több, mint 4000 repülőtéren (METAR és TAF jelentéseket).

A térképen piros és sárga pontok jelzik az elérhető meteorológiai állomásokat.

Mozgassa az egeret a pont fölött, hogy megjelenjen az állomás neve.

Azután kattintson az időjárási megfigyelések és előrejelzések megtekintéséhez.

A térkép megváltoztatása: kattintson a fekete keresztel jelölt zöld gombra ráközelítéshez, a vonallal jelölt zöld gombra távolításhoz, vagy a zöld nyilakra a szomszédos térképek eléréséhez.


METAR-TAF: